Time;durP1;ratioP1;P1;durP2;ratioP2;P2;SDS_P1;SDS_P2;PMS_P1;PMS_P2;Temp;Humidity;BMP_temperature;BMP_pressure;BME280_temperature;BME280_humidity;BME280_pressure;Samples;Min_cycle;Max_cycle;Signal;HPM_P1;HPM_P2
2023/05/24 00:00:20;;;;;;;5.63;3.83;;;;;;;12.07;71.23;95918.84;6293340;22;20199;-83
2023/05/24 00:02:46;;;;;;;6.70;4.53;;;;;;;12.09;70.93;95916.09;6292866;22;20199;-82
2023/05/24 00:05:13;;;;;;;8.23;4.40;;;;;;;12.07;71.21;95913.66;6259755;22;20160;-84
2023/05/24 00:07:38;;;;;;;6.47;4.60;;;;;;;11.82;71.85;95911.75;6274827;22;20160;-84
2023/05/24 00:10:05;;;;;;;5.97;4.00;;;;;;;11.97;71.91;95909.47;6253755;22;20187;-83
2023/05/24 00:12:30;;;;;;;4.50;3.80;;;;;;;11.75;72.53;95908.91;6280443;22;20255;-83
2023/05/24 00:14:56;;;;;;;6.60;4.00;;;;;;;11.93;72.07;95908.97;6280606;22;20156;-83
2023/05/24 00:17:21;;;;;;;6.53;4.23;;;;;;;11.68;73.01;95901.81;6254022;22;20168;-84
2023/05/24 00:19:47;;;;;;;5.50;3.87;;;;;;;11.99;71.57;95908.34;6254806;22;20670;-83
2023/05/24 00:22:12;;;;;;;7.40;4.10;;;;;;;11.82;72.17;95904.75;6278139;22;20173;-83
2023/05/24 00:24:38;;;;;;;6.67;4.00;;;;;;;11.85;72.45;95904.50;6248537;22;20527;-82
2023/05/24 00:27:04;;;;;;;11.33;3.90;;;;;;;11.80;72.34;95904.09;6253247;22;20164;-82
2023/05/24 00:29:29;;;;;;;7.37;4.57;;;;;;;11.87;72.25;95909.53;6280368;22;20145;-85
2023/05/24 00:31:54;;;;;;;6.57;4.03;;;;;;;11.84;72.21;95904.63;6255474;22;20172;-83
2023/05/24 00:34:20;;;;;;;7.57;4.43;;;;;;;11.82;71.99;95901.34;6281571;22;20198;-84
2023/05/24 00:36:45;;;;;;;7.17;4.40;;;;;;;11.52;73.17;95902.44;6280258;22;20153;-85
2023/05/24 00:39:10;;;;;;;7.27;4.67;;;;;;;11.70;72.84;95899.88;6255111;22;20172;-84
2023/05/24 00:41:36;;;;;;;7.23;4.27;;;;;;;11.48;73.43;95893.28;6254855;22;20200;-83
2023/05/24 00:44:01;;;;;;;7.63;4.27;;;;;;;11.58;72.63;95905.28;6280107;22;20152;-85
2023/05/24 00:46:29;;;;;;;6.00;4.20;;;;;;;11.56;72.86;95894.19;6254214;22;20598;-84
2023/05/24 00:48:54;;;;;;;7.83;4.30;;;;;;;11.70;72.65;95898.09;6254058;22;20279;-84
2023/05/24 00:51:21;;;;;;;7.00;4.60;;;;;;;11.72;72.40;95895.34;6283007;22;20646;-84
2023/05/24 00:53:48;;;;;;;6.63;4.40;;;;;;;11.63;72.25;95897.84;6293148;22;20160;-83
2023/05/24 00:56:14;;;;;;;8.17;4.03;;;;;;;11.57;72.51;95890.66;6292110;22;20186;-83
2023/05/24 00:58:40;;;;;;;7.50;4.20;;;;;;;11.77;72.16;95890.53;6287378;22;20160;-83
2023/05/24 01:01:05;;;;;;;5.50;4.57;;;;;;;11.58;72.81;95886.28;6281994;22;20185;-84
2023/05/24 01:03:31;;;;;;;6.43;4.30;;;;;;;11.58;73.11;95881.06;6280163;22;20149;-84
2023/05/24 01:06:04;;;;;;;7.77;4.10;;;;;;;11.49;73.43;95881.94;6279255;22;20244;-85
2023/05/24 01:08:42;;;;;;;9.63;4.47;;;;;;;11.55;73.34;95878.75;6280012;22;20156;-85
2023/05/24 01:11:13;;;;;;;5.77;4.37;;;;;;;11.64;73.12;95883.06;6255123;22;20182;-85
2023/05/24 01:13:47;;;;;;;6.73;4.03;;;;;;;11.51;72.10;95883.44;6280342;22;20157;-87
2023/05/24 01:16:20;;;;;;;6.87;4.37;;;;;;;11.67;71.64;95884.56;6279885;22;20486;-83
2023/05/24 01:18:49;;;;;;;10.00;4.50;;;;;;;11.60;71.39;95885.16;6257486;22;20164;-83
2023/05/24 01:21:37;;;;;;;8.33;4.43;;;;;;;11.66;71.36;95888.13;6260053;22;20171;-84
2023/05/24 01:24:21;;;;;;;8.50;4.60;;;;;;;11.53;71.98;95878.88;6286571;22;20140;-83
2023/05/24 01:27:06;;;;;;;8.00;4.50;;;;;;;11.63;71.75;95878.84;6310977;22;20163;-85
2023/05/24 01:29:33;;;;;;;5.20;4.20;;;;;;;11.57;71.70;95875.06;6312135;22;20173;-84
2023/05/24 01:31:59;;;;;;;10.03;4.13;;;;;;;11.57;71.21;95877.66;6259615;22;20235;-86
2023/05/24 01:34:25;;;;;;;7.33;4.20;;;;;;;11.61;71.01;95875.56;6262799;22;20163;-84
2023/05/24 01:36:50;;;;;;;10.57;5.03;;;;;;;11.46;71.48;95877.00;6313853;22;20213;-85
2023/05/24 01:39:16;;;;;;;12.03;4.70;;;;;;;11.41;71.98;95872.25;6258289;22;20194;-85
2023/05/24 01:42:02;;;;;;;7.40;4.33;;;;;;;11.70;70.32;95884.28;6255330;22;20179;-84
2023/05/24 01:44:43;;;;;;;12.23;5.43;;;;;;;11.66;70.23;95885.53;6281350;22;20159;-83
2023/05/24 01:47:35;;;;;;;7.50;4.50;;;;;;;11.37;71.36;95883.91;6305635;22;20155;-84
2023/05/24 01:50:19;;;;;;;8.10;4.50;;;;;;;11.57;70.72;95885.44;6306225;22;20160;-82
2023/05/24 01:52:44;;;;;;;8.87;4.53;;;;;;;11.52;71.52;95884.25;6256094;22;20258;-85
2023/05/24 01:55:12;;;;;;;9.47;4.53;;;;;;;11.54;70.02;95893.53;6261487;22;20590;-86
2023/05/24 01:57:40;;;;;;;10.47;5.20;;;;;;;11.07;71.42;95890.19;6258991;22;20151;-85
2023/05/24 02:00:06;;;;;;;11.67;4.77;;;;;;;11.41;70.34;95892.25;6261098;22;20533;-86
2023/05/24 02:02:31;;;;;;;12.37;4.77;;;;;;;11.40;70.91;95893.22;6261302;22;20175;-87
2023/05/24 02:04:57;;;;;;;10.70;4.37;;;;;;;11.40;70.93;95895.81;6261577;22;20152;-83
2023/05/24 02:07:23;;;;;;;11.90;4.90;;;;;;;11.34;69.82;95892.81;6260592;22;20160;-84
2023/05/24 02:09:48;;;;;;;12.30;4.90;;;;;;;11.47;69.54;95887.25;6262053;22;20601;-86
2023/05/24 02:12:13;;;;;;;9.53;4.30;;;;;;;11.41;69.18;95894.84;6315111;22;20179;-84
2023/05/24 02:14:41;;;;;;;9.80;5.13;;;;;;;11.29;69.90;95902.81;6265630;22;20163;-83
2023/05/24 02:17:06;;;;;;;9.90;4.80;;;;;;;11.10;70.87;95886.47;6299487;22;20151;-84
2023/05/24 02:19:33;;;;;;;7.03;4.63;;;;;;;11.20;71.25;95897.66;6273914;22;20846;-82
2023/05/24 02:21:58;;;;;;;9.37;4.80;;;;;;;11.26;71.46;95897.91;6301697;22;20198;-83
2023/05/24 02:24:24;;;;;;;7.00;4.80;;;;;;;11.17;71.83;95893.56;6301705;22;20147;-82
2023/05/24 02:26:49;;;;;;;12.77;4.60;;;;;;;11.19;72.14;95896.00;6302830;22;20152;-82
2023/05/24 02:29:14;;;;;;;9.10;4.37;;;;;;;11.12;72.10;95894.94;6302246;22;20148;-84
2023/05/24 02:31:40;;;;;;;9.83;4.43;;;;;;;11.10;72.33;95896.88;6329541;22;20172;-83
2023/05/24 02:34:06;;;;;;;8.27;4.60;;;;;;;10.90;72.87;95891.75;6275075;22;20451;-82
2023/05/24 02:36:34;;;;;;;7.70;4.87;;;;;;;10.92;73.04;95895.00;6272715;22;20243;-83
2023/05/24 02:39:00;;;;;;;10.73;4.90;;;;;;;10.88;72.88;95893.66;6274810;22;20159;-82
2023/05/24 02:41:25;;;;;;;11.47;4.90;;;;;;;11.19;72.01;95896.00;6274033;22;20175;-83
2023/05/24 02:43:50;;;;;;;10.40;4.80;;;;;;;10.99;72.37;95887.47;6309257;22;20152;-83
2023/05/24 02:46:16;;;;;;;10.47;5.20;;;;;;;10.80;73.15;95890.94;6280567;22;20160;-83
2023/05/24 02:48:41;;;;;;;15.10;4.50;;;;;;;10.88;72.45;95898.03;6255866;22;20156;-83
2023/05/24 02:51:06;;;;;;;11.53;4.80;;;;;;;10.71;73.19;95892.59;6281465;22;20170;-84
2023/05/24 02:53:32;;;;;;;8.17;4.93;;;;;;;10.91;72.69;95892.56;6282600;22;20490;-83
2023/05/24 02:55:58;;;;;;;9.10;5.10;;;;;;;10.92;72.43;95895.00;6254717;22;20613;-85
2023/05/24 02:58:23;;;;;;;9.90;4.70;;;;;;;10.87;72.90;95892.03;6255504;22;20156;-83
2023/05/24 03:00:48;;;;;;;10.97;4.97;;;;;;;10.78;73.32;95891.09;6281538;22;20219;-84
2023/05/24 03:03:14;;;;;;;10.50;4.90;;;;;;;10.73;73.38;95897.66;6308878;22;20152;-83
2023/05/24 03:05:40;;;;;;;8.70;4.40;;;;;;;10.80;73.13;95896.13;6255676;22;20566;-84
2023/05/24 03:08:05;;;;;;;15.77;5.13;;;;;;;10.80;73.25;95888.34;6280871;22;20155;-83
2023/05/24 03:10:31;;;;;;;13.30;4.70;;;;;;;10.68;73.89;95895.47;6255377;22;20597;-84
2023/05/24 03:12:56;;;;;;;13.90;6.00;;;;;;;10.64;74.70;95890.69;6255432;22;20164;-84
2023/05/24 03:15:21;;;;;;;11.60;5.20;;;;;;;10.81;73.61;95886.56;6255357;22;20156;-84
2023/05/24 03:17:47;;;;;;;9.23;4.63;;;;;;;10.74;74.44;95891.50;6254890;22;20489;-84
2023/05/24 03:20:12;;;;;;;12.63;5.10;;;;;;;10.66;74.69;95886.19;6254908;22;20184;-84
2023/05/24 03:22:37;;;;;;;7.63;4.30;;;;;;;10.78;74.55;95887.69;6255367;22;20182;-84
2023/05/24 03:25:03;;;;;;;10.47;5.20;;;;;;;10.71;73.93;95884.00;6253547;22;20159;-84
2023/05/24 03:27:28;;;;;;;9.27;4.97;;;;;;;10.88;73.86;95875.47;6279947;22;20170;-84
2023/05/24 03:29:54;;;;;;;9.20;5.03;;;;;;;10.82;73.86;95878.63;6255384;22;20156;-82
2023/05/24 03:32:19;;;;;;;8.43;4.50;;;;;;;10.58;74.90;95880.88;6255206;22;20175;-83
2023/05/24 03:34:44;;;;;;;8.40;4.60;;;;;;;10.71;73.71;95876.22;6255621;22;20594;-82
2023/05/24 03:37:10;;;;;;;8.30;4.50;;;;;;;10.66;73.76;95873.19;6254945;22;20201;-83
2023/05/24 03:39:35;;;;;;;8.93;4.93;;;;;;;10.61;74.11;95875.41;6255904;22;20180;-83
2023/05/24 03:42:00;;;;;;;7.87;4.80;;;;;;;10.59;74.18;95878.13;6255374;22;20175;-83
2023/05/24 03:44:25;;;;;;;10.27;4.33;;;;;;;10.51;74.19;95870.22;6255504;22;20159;-84
2023/05/24 03:46:51;;;;;;;10.13;4.63;;;;;;;10.59;74.03;95878.13;6254508;22;20156;-83
2023/05/24 03:49:16;;;;;;;12.73;4.90;;;;;;;10.45;74.92;95876.78;6280748;22;20693;-85
2023/05/24 03:51:41;;;;;;;8.33;5.07;;;;;;;10.55;74.95;95875.97;6254924;22;20172;-83
2023/05/24 03:54:07;;;;;;;8.57;4.60;;;;;;;10.62;74.79;95867.47;6255643;22;20292;-83
2023/05/24 03:56:32;;;;;;;7.40;4.90;;;;;;;10.37;75.81;95870.66;6254344;22;20159;-85
2023/05/24 03:58:59;;;;;;;8.50;5.07;;;;;;;10.60;75.66;95874.59;6280459;22;20664;-83
2023/05/24 04:01:24;;;;;;;8.07;4.60;;;;;;;10.37;76.55;95871.47;6281813;22;20172;-84
2023/05/24 04:03:51;;;;;;;9.83;5.23;;;;;;;10.49;75.71;95866.94;6280700;22;20151;-84
2023/05/24 04:06:16;;;;;;;12.43;5.50;;;;;;;10.44;76.53;95867.38;6254754;22;20159;-84
2023/05/24 04:08:41;;;;;;;12.50;4.80;;;;;;;10.45;75.97;95863.81;6256120;22;20156;-83
2023/05/24 04:11:07;;;;;;;11.67;5.30;;;;;;;10.60;75.36;95871.16;6255075;22;20176;-84
2023/05/24 04:13:32;;;;;;;11.00;4.93;;;;;;;10.51;76.36;95867.59;6255700;22;20547;-83
2023/05/24 04:15:57;;;;;;;8.67;4.70;;;;;;;10.42;76.65;95866.69;6254566;22;20231;-83
2023/05/24 04:18:23;;;;;;;11.63;6.10;;;;;;;10.19;77.33;95868.72;6255166;22;20184;-84
2023/05/24 04:20:48;;;;;;;9.73;4.60;;;;;;;10.30;77.62;95867.78;6254149;22;20236;-84
2023/05/24 04:23:13;;;;;;;13.20;5.37;;;;;;;10.43;77.61;95873.53;6255377;22;20213;-85
2023/05/24 04:25:38;;;;;;;8.13;4.93;;;;;;;10.30;78.33;95872.97;6278435;22;20151;-84
2023/05/24 04:28:05;;;;;;;9.50;5.07;;;;;;;10.26;78.85;95869.03;6254044;22;20156;-83
2023/05/24 04:30:30;;;;;;;10.03;4.90;;;;;;;10.45;78.06;95869.00;6279772;22;20194;-82
2023/05/24 04:32:56;;;;;;;8.63;5.03;;;;;;;10.59;77.70;95870.34;6253572;22;20179;-81
2023/05/24 04:35:22;;;;;;;10.80;4.97;;;;;;;10.43;78.05;95878.72;6253816;22;20478;-83
2023/05/24 04:37:49;;;;;;;10.50;4.90;;;;;;;10.24;79.44;95878.72;6253366;22;20163;-83
2023/05/24 04:40:15;;;;;;;8.77;4.60;;;;;;;10.35;79.38;95890.75;6279840;22;20179;-83
2023/05/24 04:42:40;;;;;;;12.07;5.53;;;;;;;10.38;79.32;95891.28;6254066;22;20176;-83
2023/05/24 04:45:06;;;;;;;8.57;5.40;;;;;;;10.65;78.94;95881.94;6253415;22;20837;-82
2023/05/24 04:47:31;;;;;;;10.70;6.10;;;;;;;10.19;79.96;95883.47;6279624;22;20167;-82
2023/05/24 04:49:57;;;;;;;9.17;5.63;;;;;;;10.52;78.89;95897.03;6254109;22;20160;-82
2023/05/24 04:52:22;;;;;;;8.80;5.70;;;;;;;10.30;79.44;95893.75;6253756;22;20194;-82
2023/05/24 04:54:48;;;;;;;8.97;5.13;;;;;;;10.34;79.29;95897.72;6253753;22;20163;-82
2023/05/24 04:57:13;;;;;;;9.50;5.63;;;;;;;10.24;80.55;95896.88;6253423;22;20159;-83
2023/05/24 04:59:38;;;;;;;11.53;5.97;;;;;;;10.24;79.88;95902.06;6253298;22;20540;-82
2023/05/24 05:02:04;;;;;;;11.73;5.70;;;;;;;10.30;80.01;95898.13;6256898;22;20171;-81
2023/05/24 05:04:29;;;;;;;13.13;6.30;;;;;;;10.36;79.79;95910.56;6254949;22;20160;-82
2023/05/24 05:06:56;;;;;;;16.87;6.33;;;;;;;10.15;80.30;95898.47;6279248;22;20147;-83
2023/05/24 05:09:23;;;;;;;11.53;5.87;;;;;;;10.25;79.69;95908.91;6280327;22;20148;-81
2023/05/24 05:11:48;;;;;;;7.90;5.10;;;;;;;10.21;79.99;95910.91;6255803;22;20179;-82
2023/05/24 05:14:13;;;;;;;11.27;5.40;;;;;;;10.16;79.63;95912.31;6280301;22;20154;-81
2023/05/24 05:16:40;;;;;;;9.97;5.80;;;;;;;10.24;79.83;95906.44;6279584;22;20160;-80
2023/05/24 05:19:05;;;;;;;10.93;5.60;;;;;;;10.31;79.07;95904.94;6281781;22;20167;-81
2023/05/24 05:21:34;;;;;;;10.80;5.40;;;;;;;10.48;77.97;95906.84;6254004;22;20183;-82
2023/05/24 05:23:59;;;;;;;11.07;5.10;;;;;;;10.37;78.33;95905.22;6254121;22;20156;-82
2023/05/24 05:26:26;;;;;;;12.90;5.97;;;;;;;10.17;79.27;95901.78;6277239;22;20148;-81
2023/05/24 05:28:51;;;;;;;11.50;6.10;;;;;;;10.15;78.20;95905.44;6253931;22;20605;-81
2023/05/24 05:31:17;;;;;;;11.30;5.40;;;;;;;10.29;77.94;95893.88;6279030;22;20167;-80
2023/05/24 05:33:42;;;;;;;7.97;5.33;;;;;;;10.43;76.84;95898.66;6279286;22;20156;-82
2023/05/24 05:36:07;;;;;;;16.43;6.07;;;;;;;10.17;77.69;95894.00;6253310;22;20156;-82
2023/05/24 05:38:33;;;;;;;15.23;6.37;;;;;;;10.19;78.21;95886.06;6279412;22;20147;-81
2023/05/24 05:40:58;;;;;;;9.50;5.13;;;;;;;10.32;77.59;95891.00;6253199;22;20194;-81
2023/05/24 05:43:24;;;;;;;9.73;5.13;;;;;;;10.28;77.46;95889.66;6253792;22;20159;-82
2023/05/24 05:45:49;;;;;;;11.40;5.40;;;;;;;10.41;77.06;95901.38;6278631;22;20159;-82
2023/05/24 05:48:14;;;;;;;13.33;5.77;;;;;;;10.32;77.11;95894.41;6252984;22;20155;-82
2023/05/24 05:50:40;;;;;;;12.60;4.97;;;;;;;10.20;77.59;95893.72;6306503;22;20186;-82
2023/05/24 05:53:05;;;;;;;15.63;5.50;;;;;;;10.13;78.15;95890.03;6278878;22;20159;-82
2023/05/24 05:55:30;;;;;;;10.43;5.27;;;;;;;10.43;76.68;95889.09;6278725;22;20147;-82
2023/05/24 05:57:56;;;;;;;10.53;5.00;;;;;;;10.37;76.06;95894.84;6252352;22;20800;-82
2023/05/24 06:00:22;;;;;;;8.17;5.10;;;;;;;10.57;75.59;95894.81;6279046;22;20172;-82
2023/05/24 06:02:47;;;;;;;13.47;5.83;;;;;;;10.82;74.37;95888.19;6278417;22;20180;-82
2023/05/24 06:05:12;;;;;;;11.27;5.47;;;;;;;10.71;75.35;95890.00;6279228;22;20159;-82
2023/05/24 06:07:38;;;;;;;12.37;6.23;;;;;;;10.81;75.29;95897.78;6252619;22;20537;-81
2023/05/24 06:10:04;;;;;;;12.83;5.10;;;;;;;10.93;74.44;95895.81;6278864;22;20152;-82
2023/05/24 06:12:30;;;;;;;11.90;5.10;;;;;;;10.76;75.64;95898.19;6278797;22;20652;-82
2023/05/24 06:14:56;;;;;;;12.97;5.63;;;;;;;10.66;73.73;95894.78;6253481;22;20156;-81
2023/05/24 06:17:23;;;;;;;11.27;5.60;;;;;;;10.80;73.31;95897.94;6252862;22;20155;-82
2023/05/24 06:19:48;;;;;;;11.27;5.37;;;;;;;10.91;73.07;95898.56;6248270;22;20184;-82
2023/05/24 06:22:14;;;;;;;10.80;5.70;;;;;;;10.61;73.62;95893.59;6274129;22;20183;-81
2023/05/24 06:24:39;;;;;;;13.07;5.70;;;;;;;10.73;73.38;95900.25;6272664;22;20621;-80
2023/05/24 06:27:04;;;;;;;12.37;5.10;;;;;;;10.90;72.35;95896.94;6299570;22;20627;-82
2023/05/24 06:29:29;;;;;;;10.73;5.43;;;;;;;11.10;71.44;95894.28;6273541;22;20152;-82
2023/05/24 06:31:55;;;;;;;12.60;5.43;;;;;;;11.10;70.53;95899.47;6299948;22;20230;-82
2023/05/24 06:34:21;;;;;;;9.60;5.17;;;;;;;11.11;71.44;95899.31;6274484;22;20161;-83
2023/05/24 06:36:47;;;;;;;9.37;4.83;;;;;;;11.23;70.69;95905.19;6298745;22;20160;-83
2023/05/24 06:39:13;;;;;;;12.63;5.40;;;;;;;10.77;70.87;95906.78;6273814;22;20273;-83
2023/05/24 06:41:38;;;;;;;12.20;5.17;;;;;;;11.06;72.28;95904.97;6299600;22;20625;-82
2023/05/24 06:44:04;;;;;;;11.33;5.10;;;;;;;11.38;70.23;95910.72;6299916;22;20218;-82
2023/05/24 06:46:29;;;;;;;10.03;5.63;;;;;;;11.30;68.41;95914.84;6273565;22;20152;-81
2023/05/24 06:48:55;;;;;;;13.73;4.90;;;;;;;11.63;67.31;95918.66;6274018;22;20149;-82
2023/05/24 06:51:20;;;;;;;15.50;5.40;;;;;;;11.70;67.31;95918.91;6273941;22;20176;-82
2023/05/24 06:53:46;;;;;;;14.10;5.70;;;;;;;11.21;69.54;95926.09;6299693;22;20350;-81
2023/05/24 06:56:11;;;;;;;10.43;4.80;;;;;;;11.43;67.31;95924.13;6273032;22;20164;-82
2023/05/24 06:58:36;;;;;;;16.30;5.17;;;;;;;11.42;67.60;95927.69;6299608;22;20240;-82
2023/05/24 07:01:03;;;;;;;11.67;5.37;;;;;;;11.29;66.41;95934.00;6273891;22;20198;-82
2023/05/24 07:03:29;;;;;;;8.70;4.50;;;;;;;11.54;66.43;95937.75;6273993;22;20156;-82
2023/05/24 07:05:54;;;;;;;11.40;4.80;;;;;;;11.31;66.48;95941.69;6272487;22;20629;-82
2023/05/24 07:08:20;;;;;;;7.27;4.50;;;;;;;11.51;66.16;95942.44;6274212;22;20165;-82
2023/05/24 07:10:45;;;;;;;7.30;4.50;;;;;;;11.60;66.64;95941.56;6275472;22;20482;-81
2023/05/24 07:13:12;;;;;;;10.80;5.00;;;;;;;11.22;67.28;95947.72;6277115;22;20167;-81
2023/05/24 07:15:40;;;;;;;8.23;4.27;;;;;;;11.09;68.51;95942.84;6276787;22;20636;-83
2023/05/24 07:18:05;;;;;;;13.43;5.17;;;;;;;11.33;67.78;95955.34;6277479;22;20167;-83
2023/05/24 07:20:31;;;;;;;12.63;4.97;;;;;;;11.42;67.54;95959.72;6282066;22;20192;-82
2023/05/24 07:22:57;;;;;;;14.20;5.30;;;;;;;11.23;68.16;95960.59;6256970;22;20184;-82
2023/05/24 07:25:23;;;;;;;12.27;6.17;;;;;;;10.88;69.72;95960.41;6256271;22;20221;-83
2023/05/24 07:27:49;;;;;;;14.33;5.40;;;;;;;10.95;70.44;95959.69;6257334;22;20493;-82
2023/05/24 07:30:14;;;;;;;9.23;4.80;;;;;;;11.15;69.54;95947.47;6256725;22;20152;-82
2023/05/24 07:32:39;;;;;;;13.20;5.40;;;;;;;11.54;69.01;95958.56;6280221;22;20183;-83
2023/05/24 07:35:05;;;;;;;16.17;6.70;;;;;;;11.49;68.01;95960.78;6255428;22;20178;-83
2023/05/24 07:37:31;;;;;;;12.50;5.80;;;;;;;11.92;66.71;95961.94;6280218;22;20221;-82
2023/05/24 07:39:56;;;;;;;12.43;6.30;;;;;;;11.36;68.73;95960.25;6255359;22;20234;-82
2023/05/24 07:42:21;;;;;;;17.40;5.67;;;;;;;11.10;69.57;95962.66;6308853;22;20167;-82
2023/05/24 07:44:46;;;;;;;15.13;5.27;;;;;;;10.63;72.51;95964.38;6255934;22;20160;-82
2023/05/24 07:47:12;;;;;;;14.23;5.40;;;;;;;11.20;71.19;95968.66;6254073;22;20163;-82
2023/05/24 07:49:37;;;;;;;9.33;5.47;;;;;;;11.57;69.44;95968.69;6254844;22;20163;-82
2023/05/24 07:52:03;;;;;;;12.43;5.70;;;;;;;11.15;69.12;95964.84;6280883;22;20172;-83
2023/05/24 07:54:28;;;;;;;12.07;5.37;;;;;;;11.51;66.53;95969.25;6255338;22;20497;-82
2023/05/24 07:56:54;;;;;;;12.67;5.17;;;;;;;11.67;67.11;95970.44;6253992;22;20160;-82
2023/05/24 07:59:19;;;;;;;12.90;5.50;;;;;;;12.11;66.43;95972.28;6280398;22;20172;-83
2023/05/24 08:01:46;;;;;;;14.07;5.43;;;;;;;11.61;67.90;95969.22;6254754;22;20171;-83
2023/05/24 08:04:12;;;;;;;13.80;5.83;;;;;;;12.01;67.18;95983.69;6254760;22;20220;-83
2023/05/24 08:06:37;;;;;;;12.03;5.30;;;;;;;12.20;66.61;95978.38;6278964;22;20171;-83
2023/05/24 08:09:04;;;;;;;9.97;5.57;;;;;;;11.47;68.68;95980.88;6279194;22;20159;-82
2023/05/24 08:11:29;;;;;;;13.20;5.30;;;;;;;11.88;67.07;95978.84;6279588;22;20172;-82
2023/05/24 08:13:55;;;;;;;10.10;5.60;;;;;;;11.93;66.87;95984.44;6254210;22;20159;-82
2023/05/24 08:16:20;;;;;;;9.67;5.17;;;;;;;11.99;66.35;95975.22;6253162;22;20163;-82
2023/05/24 08:18:45;;;;;;;13.93;5.40;;;;;;;11.71;66.79;95992.56;6253689;22;20168;-83
2023/05/24 08:21:11;;;;;;;11.03;5.20;;;;;;;11.68;67.08;95988.50;6277524;22;20215;-83
2023/05/24 08:23:36;;;;;;;14.17;5.13;;;;;;;11.63;66.87;95983.69;6278524;22;20163;-83
2023/05/24 08:26:01;;;;;;;9.13;5.23;;;;;;;11.38;67.06;95991.31;6250998;22;20213;-82
2023/05/24 08:28:28;;;;;;;18.43;6.43;;;;;;;11.49;65.98;95991.16;6255155;22;20163;-81
2023/05/24 08:30:53;;;;;;;14.90;5.47;;;;;;;11.62;65.80;95989.06;6280471;22;20171;-83
2023/05/24 08:33:18;;;;;;;17.27;5.63;;;;;;;11.61;65.23;95992.63;6307872;22;20183;-82
2023/05/24 08:35:44;;;;;;;12.97;5.77;;;;;;;11.11;66.92;95982.50;6307718;22;20144;-82
2023/05/24 08:38:09;;;;;;;10.77;4.83;;;;;;;11.21;67.31;95983.28;6281979;22;20144;-82
2023/05/24 08:40:34;;;;;;;14.87;5.57;;;;;;;11.15;69.21;95993.44;6282227;22;20188;-82
2023/05/24 08:43:00;;;;;;;8.67;5.33;;;;;;;11.00;68.81;95991.28;6281721;22;20156;-82
2023/05/24 08:45:28;;;;;;;12.93;6.00;;;;;;;11.10;68.81;95993.03;6281443;22;20156;-82
2023/05/24 08:47:54;;;;;;;14.83;5.33;;;;;;;10.82;70.98;95992.94;6259548;22;20171;-82
2023/05/24 08:50:20;;;;;;;11.33;5.37;;;;;;;11.56;69.30;96000.84;6254400;22;20152;-81
2023/05/24 08:52:45;;;;;;;8.77;5.20;;;;;;;11.65;68.62;96001.75;6256438;22;20644;-82
2023/05/24 08:55:11;;;;;;;11.20;5.77;;;;;;;11.45;68.66;95995.00;6255826;22;20167;-82
2023/05/24 08:57:40;;;;;;;15.03;6.40;;;;;;;11.55;69.25;95999.19;6278851;22;20168;-82
2023/05/24 09:00:12;;;;;;;16.33;7.13;;;;;;;11.23;70.15;95994.38;6254359;22;20175;-83
2023/05/24 09:02:39;;;;;;;11.87;5.70;;;;;;;11.39;70.25;95991.16;6253655;22;20195;-83
2023/05/24 09:05:08;;;;;;;13.50;5.87;;;;;;;11.81;68.70;95998.59;6253121;22;20500;-83
2023/05/24 09:07:34;;;;;;;11.03;5.63;;;;;;;11.28;70.10;95986.97;6278437;22;20160;-82
2023/05/24 09:10:05;;;;;;;16.33;6.10;;;;;;;11.50;68.88;95993.63;6278730;22;20273;-83
2023/05/24 09:12:31;;;;;;;11.00;5.53;;;;;;;11.80;67.77;95989.13;6278423;22;20469;-82
2023/05/24 09:14:57;;;;;;;15.40;5.60;;;;;;;12.11;66.35;95989.69;6279283;22;20204;-82
2023/05/24 09:17:23;;;;;;;14.00;6.00;;;;;;;12.33;65.44;95996.25;6251822;22;20536;-83
2023/05/24 09:19:50;;;;;;;14.17;5.83;;;;;;;11.29;69.02;95990.38;6207977;22;1038603;-82
2023/05/24 09:22:22;;;;;;;12.03;6.10;;;;;;;12.00;66.60;95998.47;6254252;22;20326;-83
2023/05/24 09:24:50;;;;;;;12.37;5.93;;;;;;;11.87;66.68;96004.03;6254084;22;20160;-83
2023/05/24 09:27:16;;;;;;;12.37;6.13;;;;;;;12.19;65.73;95998.41;6278920;22;20281;-83
2023/05/24 09:29:44;;;;;;;13.47;5.57;;;;;;;12.57;64.30;95999.09;6279651;22;20681;-82
2023/05/24 09:32:10;;;;;;;13.27;5.60;;;;;;;12.72;63.47;95994.16;6254369;22;20172;-82
2023/05/24 09:34:40;;;;;;;10.17;5.20;;;;;;;12.05;64.70;95995.47;6253876;22;20164;-82
2023/05/24 09:37:08;;;;;;;21.37;6.00;;;;;;;12.38;63.49;96004.44;6253514;22;20711;-82
2023/05/24 09:39:33;;;;;;;15.23;5.47;;;;;;;12.40;63.77;96005.94;6254263;22;20200;-82
2023/05/24 09:41:59;;;;;;;12.07;5.30;;;;;;;12.69;63.06;95997.88;6253971;22;20625;-81
2023/05/24 09:44:28;;;;;;;12.73;5.27;;;;;;;12.02;64.70;96007.00;6253641;22;20225;-81
2023/05/24 09:47:00;;;;;;;13.10;5.87;;;;;;;12.22;63.65;96007.69;6278491;22;20205;-82
2023/05/24 09:49:26;;;;;;;15.53;5.53;;;;;;;12.10;64.26;96014.91;6253616;22;20183;-81
2023/05/24 09:51:51;;;;;;;11.10;5.20;;;;;;;12.61;63.05;96003.03;6279073;22;20236;-80
2023/05/24 09:54:17;;;;;;;10.83;5.60;;;;;;;13.00;61.34;96008.75;6280777;22;20152;-80
2023/05/24 09:56:45;;;;;;;11.27;5.03;;;;;;;13.17;60.94;96003.66;6307047;22;20624;-81
2023/05/24 09:59:10;;;;;;;12.87;5.47;;;;;;;12.01;63.55;96015.72;6280286;22;20147;-81
2023/05/24 10:01:36;;;;;;;12.10;5.70;;;;;;;12.61;61.42;96008.22;6279759;22;20248;-82
2023/05/24 10:04:01;;;;;;;12.63;5.80;;;;;;;13.29;60.42;95998.06;6279800;22;20152;-82
2023/05/24 10:06:28;;;;;;;12.90;5.03;;;;;;;13.85;58.16;96006.34;6253494;22;20190;-81
2023/05/24 10:08:54;;;;;;;15.43;5.37;;;;;;;13.81;57.15;96005.03;6279735;22;20152;-81
2023/05/24 10:11:22;;;;;;;13.10;5.57;;;;;;;14.23;56.44;96004.22;6254020;22;20179;-81
2023/05/24 10:13:48;;;;;;;15.37;5.73;;;;;;;14.98;54.56;96005.81;6254792;22;20205;-81
2023/05/24 10:16:14;;;;;;;14.37;5.20;;;;;;;15.31;51.73;96005.81;6279262;22;20156;-82
2023/05/24 10:18:40;;;;;;;15.37;6.03;;;;;;;15.54;51.11;96000.69;6255211;22;20156;-83
2023/05/24 10:21:08;;;;;;;10.33;5.00;;;;;;;15.96;49.20;96005.66;6253770;22;20219;-82
2023/05/24 10:23:37;;;;;;;9.40;5.10;;;;;;;14.95;49.16;96005.34;6282118;22;20174;-83
2023/05/24 10:26:07;;;;;;;9.53;4.70;;;;;;;16.10;46.53;96009.38;6258102;22;20189;-82
2023/05/24 10:28:39;;;;;;;8.27;4.73;;;;;;;15.76;47.70;96001.81;6281250;22;20167;-82
2023/05/24 10:31:11;;;;;;;14.43;5.60;;;;;;;16.49;46.87;95990.19;6254209;22;20218;-81
2023/05/24 10:33:37;;;;;;;13.30;5.03;;;;;;;15.78;48.75;95986.75;6279965;22;20154;-82
2023/05/24 10:36:04;;;;;;;12.00;4.50;;;;;;;16.47;46.97;95987.75;6254034;22;20203;-82
2023/05/24 10:38:29;;;;;;;11.70;5.13;;;;;;;16.57;48.67;95980.47;6254305;22;20155;-82
2023/05/24 10:40:55;;;;;;;12.97;5.03;;;;;;;16.22;49.05;95984.44;6280459;22;20249;-82
2023/05/24 10:43:20;;;;;;;12.27;5.07;;;;;;;15.90;49.05;95988.00;6255366;22;20152;-83
2023/05/24 10:45:49;;;;;;;14.27;5.27;;;;;;;14.60;51.05;95990.78;6259368;22;20668;-81
2023/05/24 10:48:15;;;;;;;12.20;4.77;;;;;;;14.65;50.57;95980.63;6284518;22;20136;-83
2023/05/24 10:50:42;;;;;;;11.50;6.30;;;;;;;14.57;50.55;95978.81;6283778;22;20159;-82
2023/05/24 10:53:17;;;;;;;9.60;6.13;;;;;;;14.26;52.47;95975.97;6259658;22;20509;-83
2023/05/24 10:55:53;;;;;;;12.23;5.83;;;;;;;15.99;47.79;95975.69;6284254;22;20147;-82
2023/05/24 10:58:19;;;;;;;11.30;4.97;;;;;;;15.45;47.99;95973.72;6308402;22;20224;-82
2023/05/24 11:00:45;;;;;;;9.50;5.27;;;;;;;15.41;49.87;95969.81;6282165;22;20171;-83
2023/05/24 11:03:12;;;;;;;12.77;5.27;;;;;;;16.63;47.74;95956.19;6281952;22;20152;-82
2023/05/24 11:05:46;;;;;;;11.10;4.93;;;;;;;16.41;45.44;95959.59;6256367;22;20155;-83
2023/05/24 11:08:12;;;;;;;8.37;4.40;;;;;;;16.75;43.50;95958.41;6309618;22;20151;-83
2023/05/24 11:10:37;;;;;;;11.40;5.03;;;;;;;17.34;43.32;95954.13;6256966;22;20211;-83
2023/05/24 11:13:06;;;;;;;8.82;4.47;;;;;;;16.34;45.80;95956.88;6258552;22;20152;-83
2023/05/24 11:15:32;;;;;;;14.77;4.97;;;;;;;16.33;45.65;95959.63;6256871;22;20251;-81
2023/05/24 11:18:12;;;;;;;12.93;4.78;;;;;;;15.79;43.80;95962.19;6256685;22;20160;-83
2023/05/24 11:20:41;;;;;;;16.23;4.38;;;;;;;15.93;41.04;95960.69;6283780;22;20195;-84
2023/05/24 11:23:10;;;;;;;7.32;4.13;;;;;;;14.90;42.91;95952.72;6283434;22;20158;-84
2023/05/24 11:25:37;;;;;;;10.23;4.07;;;;;;;15.12;45.41;95951.22;6257454;22;20152;-83